Time;durP1;ratioP1;P1;durP2;ratioP2;P2;SDS_P1;SDS_P2;PMS_P1;PMS_P2;Temp;Humidity;BMP_temperature;BMP_pressure;BME280_temperature;BME280_humidity;BME280_pressure;Samples;Min_cycle;Max_cycle;Signal;HPM_P1;HPM_P2
2021/12/09 00:01:39;;;;;;;15.57;5.43;;;2.10;99.90;;;;;;5048475;28;20096;-78
2021/12/09 00:04:25;;;;;;;14.02;5.50;;;2.00;99.90;;;;;;5066217;28;20045;-80
2021/12/09 00:06:54;;;;;;;13.50;5.20;;;2.10;99.90;;;;;;5048612;28;20037;-80
2021/12/09 00:09:21;;;;;;;14.75;5.68;;;2.00;99.90;;;;;;5047242;28;20028;-80
2021/12/09 00:11:49;;;;;;;14.63;5.70;;;2.60;99.90;;;;;;5047996;28;20199;-80
2021/12/09 00:14:29;;;;;;;12.50;5.43;;;2.50;99.90;;;;;;5048387;28;20212;-80
2021/12/09 00:17:03;;;;;;;12.23;5.47;;;2.00;99.90;;;;;;5048071;28;20168;-79
2021/12/09 00:19:36;;;;;;;14.38;5.78;;;3.20;99.90;;;;;;5064884;28;20024;-80
2021/12/09 00:22:04;;;;;;;11.35;5.80;;;2.00;99.90;;;;;;5062196;28;20281;-80
2021/12/09 00:24:30;;;;;;;14.77;6.20;;;1.00;99.90;;;;;;5048283;28;20091;-81
2021/12/09 00:26:56;;;;;;;11.57;5.45;;;3.10;99.90;;;;;;5064981;28;20268;-78
2021/12/09 00:29:22;;;;;;;13.98;6.18;;;1.90;99.90;;;;;;5061341;28;20233;-81
2021/12/09 00:31:57;;;;;;;14.68;5.78;;;1.90;99.90;;;;;;5047869;28;20040;-80
2021/12/09 00:34:34;;;;;;;14.00;5.80;;;2.00;99.90;;;;;;5047270;28;20025;-82
2021/12/09 00:37:38;;;;;;;13.95;5.90;;;1.80;99.90;;;;;;5064265;28;20053;-81
2021/12/09 00:40:00;;;;;;;14.55;5.38;;;;;;;;;;5063671;28;20172;-81
2021/12/09 00:42:28;;;;;;;12.52;5.40;;;1.80;99.90;;;;;;5064563;28;20032;-81
2021/12/09 00:45:05;;;;;;;11.88;5.72;;;1.80;99.90;;;;;;5044992;28;20021;-82
2021/12/09 00:47:34;;;;;;;14.32;6.03;;;;;;;;;;5064021;28;20127;-81
2021/12/09 00:50:00;;;;;;;16.27;5.82;;;1.70;99.90;;;;;;5047816;28;20049;-81
2021/12/09 00:52:29;;;;;;;14.68;6.03;;;1.70;99.90;;;;;;5047828;28;20097;-81
2021/12/09 00:54:59;;;;;;;15.05;6.30;;;1.70;99.90;;;;;;5047893;28;20029;-79
2021/12/09 00:57:28;;;;;;;13.95;5.97;;;1.70;99.90;;;;;;5031650;28;20039;-83
2021/12/09 00:59:54;;;;;;;16.75;6.32;;;1.80;99.90;;;;;;5047118;28;20036;-81
2021/12/09 01:02:20;;;;;;;14.73;5.90;;;1.90;99.90;;;;;;5027766;28;20071;-80
2021/12/09 01:04:52;;;;;;;15.93;6.18;;;1.70;99.90;;;;;;5039778;28;20068;-80
2021/12/09 01:07:21;;;;;;;15.13;6.20;;;1.70;99.90;;;;;;5063794;28;20033;-80
2021/12/09 01:09:49;;;;;;;16.90;6.60;;;1.70;99.90;;;;;;5047598;28;20029;-80
2021/12/09 01:12:15;;;;;;;16.38;6.35;;;1.60;99.90;;;;;;5063859;28;20048;-79
2021/12/09 01:15:01;;;;;;;14.82;6.65;;;3.00;99.90;;;;;;5030982;28;20255;-80
2021/12/09 01:17:27;;;;;;;15.38;6.10;;;1.60;99.90;;;;;;5063961;28;20282;-81
2021/12/09 01:19:56;;;;;;;13.55;6.28;;;1.60;99.90;;;;;;5046480;28;20056;-81
2021/12/09 01:22:29;;;;;;;16.50;6.78;;;1.60;99.90;;;;;;5021905;28;20016;-82
2021/12/09 01:24:55;;;;;;;14.00;6.38;;;1.60;99.90;;;;;;5031035;28;20020;-81
2021/12/09 01:27:21;;;;;;;16.48;6.63;;;1.60;99.90;;;;;;5047045;28;20074;-80
2021/12/09 01:29:53;;;;;;;16.60;7.47;;;1.60;99.90;;;;;;5014127;28;20017;-80
2021/12/09 01:32:26;;;;;;;16.00;7.07;;;2.20;99.90;;;;;;5061033;28;20021;-82
2021/12/09 01:34:51;;;;;;;18.15;7.35;;;1.60;99.90;;;;;;5061282;28;20081;-81
2021/12/09 01:37:26;;;;;;;15.50;7.00;;;;;;;;;;5044026;28;20070;-80
2021/12/09 01:39:58;;;;;;;15.65;7.13;;;1.60;99.90;;;;;;5062945;28;20025;-80
2021/12/09 01:42:24;;;;;;;14.17;6.83;;;1.60;99.90;;;;;;5030499;28;20052;-80
2021/12/09 01:44:50;;;;;;;21.90;7.35;;;1.60;99.90;;;;;;5062806;28;20522;-81
2021/12/09 01:47:16;;;;;;;18.85;7.68;;;1.60;99.90;;;;;;5026739;28;20033;-81
2021/12/09 01:49:55;;;;;;;;;;;;;;;;;;;;;
2021/12/09 01:52:29;;;;;;;15.77;7.50;;;1.60;99.90;;;;;;5055729;28;20024;-80
2021/12/09 01:54:55;;;;;;;14.07;7.03;;;1.60;99.90;;;;;;5046201;28;20149;-79
2021/12/09 01:57:21;;;;;;;16.42;7.35;;;1.60;99.90;;;;;;5063147;28;20044;-81
2021/12/09 01:59:51;;;;;;;17.88;7.30;;;1.60;99.90;;;;;;5029136;28;20038;-81
2021/12/09 02:02:17;;;;;;;15.82;7.32;;;1.40;99.90;;;;;;5026401;28;20025;-81
2021/12/09 02:04:48;;;;;;;15.38;7.05;;;;;;;;;;5060035;28;20036;-81
2021/12/09 02:07:15;;;;;;;17.20;7.22;;;1.50;99.90;;;;;;5062844;28;20049;-80
2021/12/09 02:09:46;;;;;;;16.70;7.38;;;2.80;99.90;;;;;;5028965;28;20017;-81
2021/12/09 02:12:23;;;;;;;17.98;7.20;;;;;;;;;;5062622;28;20218;-82
2021/12/09 02:14:53;;;;;;;14.85;7.28;;;1.50;99.90;;;;;;5061987;28;20040;-81
2021/12/09 02:17:21;;;;;;;15.73;7.45;;;1.40;99.90;;;;;;5062332;28;20021;-81
2021/12/09 02:19:48;;;;;;;16.77;7.35;;;1.40;99.90;;;;;;5045614;28;20029;-81
2021/12/09 02:22:15;;;;;;;17.30;7.68;;;2.20;99.90;;;;;;5045657;28;20043;-82
2021/12/09 02:24:41;;;;;;;17.35;7.88;;;1.40;99.90;;;;;;5045769;28;20029;-78
2021/12/09 02:27:33;;;;;;;15.63;7.50;;;1.40;99.90;;;;;;5062067;28;20021;-81
2021/12/09 02:29:59;;;;;;;14.02;7.88;;;1.20;99.90;;;;;;5024623;28;20040;-80
2021/12/09 02:32:25;;;;;;;14.50;7.50;;;1.30;99.90;;;;;;5045453;28;20226;-81
2021/12/09 02:34:51;;;;;;;15.63;7.80;;;2.40;99.90;;;;;;5045607;28;20155;-80
2021/12/09 02:37:18;;;;;;;16.08;7.38;;;2.10;99.90;;;;;;5045580;28;20032;-81
2021/12/09 02:39:49;;;;;;;14.25;7.20;;;1.30;99.90;;;;;;5061800;28;20271;-82
2021/12/09 02:42:15;;;;;;;19.42;8.60;;;1.20;99.90;;;;;;5030172;28;20070;-79
2021/12/09 02:44:51;;;;;;;17.60;7.40;;;3.10;99.90;;;;;;5061904;28;20028;-81
2021/12/09 02:47:21;;;;;;;14.02;7.43;;;1.20;99.90;;;;;;5045349;28;20231;-81
2021/12/09 02:49:53;;;;;;;16.17;7.13;;;1.20;99.90;;;;;;5059013;28;20033;-80
2021/12/09 02:52:25;;;;;;;15.73;7.93;;;1.00;99.90;;;;;;5038293;28;20032;-82
2021/12/09 02:55:04;;;;;;;16.63;7.82;;;1.20;99.90;;;;;;5062411;28;20029;-83
2021/12/09 02:57:33;;;;;;;15.73;7.50;;;;;;;;;;5028044;28;20025;-83
2021/12/09 03:00:02;;;;;;;18.73;7.97;;;1.10;99.90;;;;;;5022702;28;20029;-83
2021/12/09 03:02:29;;;;;;;15.27;7.90;;;;;;;;;;5044972;28;20027;-83
2021/12/09 03:05:01;;;;;;;17.65;7.95;;;1.20;99.90;;;;;;5044948;28;20036;-83
2021/12/09 03:07:38;;;;;;;15.02;7.80;;;1.20;99.90;;;;;;5061787;28;20209;-82
2021/12/09 03:10:20;;;;;;;16.40;7.70;;;;;;;;;;5061141;28;20040;-82
2021/12/09 03:12:49;;;;;;;15.23;7.47;;;1.20;99.90;;;;;;5035217;28;20140;-83
2021/12/09 03:15:20;;;;;;;18.05;8.10;;;1.10;99.90;;;;;;5061666;28;20033;-84
2021/12/09 03:17:47;;;;;;;16.73;7.93;;;-1.10;99.90;;;;;;5045398;28;20086;-83
2021/12/09 03:20:24;;;;;;;18.10;8.02;;;2.50;99.90;;;;;;5061581;28;20175;-84
2021/12/09 03:22:50;;;;;;;18.08;8.43;;;1.10;99.90;;;;;;5061522;28;20040;-82
2021/12/09 03:25:18;;;;;;;17.00;8.15;;;1.20;99.90;;;;;;5044920;28;20264;-83
2021/12/09 03:27:50;;;;;;;19.48;8.93;;;1.20;99.90;;;;;;5065324;28;20203;-83
2021/12/09 03:30:20;;;;;;;16.17;8.45;;;;;;;;;;5049723;28;20009;-83
2021/12/09 03:32:46;;;;;;;18.67;9.05;;;1.10;99.90;;;;;;5048837;28;20306;-82
2021/12/09 03:35:13;;;;;;;19.05;9.23;;;1.10;99.90;;;;;;5065958;28;20090;-84
2021/12/09 03:37:41;;;;;;;15.43;8.57;;;1.10;99.90;;;;;;5065702;28;20025;-83
2021/12/09 03:40:07;;;;;;;16.23;8.38;;;1.10;99.90;;;;;;5047828;28;20283;-83
2021/12/09 03:42:39;;;;;;;19.05;9.02;;;1.10;99.90;;;;;;5048653;28;20023;-83
2021/12/09 03:45:06;;;;;;;16.25;8.07;;;1.70;99.90;;;;;;5065508;28;20040;-83
2021/12/09 03:47:39;;;;;;;17.58;9.23;;;1.10;99.90;;;;;;5065284;28;20032;-84
2021/12/09 03:50:11;;;;;;;18.58;9.45;;;1.10;99.90;;;;;;5064610;28;20052;-83
2021/12/09 03:52:37;;;;;;;18.35;8.27;;;1.00;99.90;;;;;;5049353;28;20032;-82
2021/12/09 03:55:05;;;;;;;18.63;8.95;;;1.70;99.90;;;;;;5046088;28;20032;-83
2021/12/09 03:57:32;;;;;;;18.55;9.05;;;1.00;99.90;;;;;;5048747;28;20036;-83
2021/12/09 04:00:11;;;;;;;18.38;9.48;;;2.40;99.90;;;;;;5048363;28;20091;-83
2021/12/09 04:02:38;;;;;;;18.05;8.48;;;;;;;;;;5048355;28;20028;-84
2021/12/09 04:05:07;;;;;;;20.10;9.35;;;1.00;99.90;;;;;;5048843;28;20028;-84
2021/12/09 04:07:35;;;;;;;18.42;9.23;;;1.00;99.90;;;;;;5065221;28;20027;-83
2021/12/09 04:10:08;;;;;;;17.33;8.52;;;2.10;99.90;;;;;;5065115;28;20035;-84
2021/12/09 04:12:37;;;;;;;17.83;9.63;;;1.00;99.90;;;;;;5049163;28;20013;-82
2021/12/09 04:15:04;;;;;;;18.42;9.60;;;2.30;99.90;;;;;;5064624;28;20096;-83
2021/12/09 04:17:31;;;;;;;18.55;9.68;;;1.00;99.90;;;;;;5064993;28;20045;-83
2021/12/09 04:19:57;;;;;;;17.77;9.30;;;1.00;99.90;;;;;;5028533;28;20035;-84
2021/12/09 04:22:36;;;;;;;19.85;9.70;;;1.00;99.90;;;;;;5064521;28;20222;-84
2021/12/09 04:25:03;;;;;;;20.45;9.80;;;1.00;99.90;;;;;;5064330;28;20033;-83
2021/12/09 04:27:38;;;;;;;22.80;10.57;;;1.00;99.90;;;;;;5064852;28;20033;-84
2021/12/09 04:30:11;;;;;;;19.30;9.55;;;1.00;99.90;;;;;;5047567;28;20025;-83
2021/12/09 04:32:37;;;;;;;19.55;9.38;;;0.90;99.90;;;;;;5063249;28;20009;-84
2021/12/09 04:35:04;;;;;;;21.88;9.88;;;1.00;99.90;;;;;;5047918;28;20017;-84
2021/12/09 04:37:29;;;;;;;15.18;8.93;;;0.90;99.90;;;;;;5055917;28;20017;-83
2021/12/09 04:39:55;;;;;;;17.95;9.65;;;1.00;99.90;;;;;;5062584;28;20318;-83
2021/12/09 04:42:28;;;;;;;19.58;9.98;;;1.00;99.90;;;;;;5060689;28;20037;-84
2021/12/09 04:44:55;;;;;;;20.45;9.82;;;0.90;99.90;;;;;;5048431;28;20049;-81
2021/12/09 04:47:21;;;;;;;23.23;10.18;;;0.80;99.90;;;;;;5031278;28;20039;-83
2021/12/09 04:49:53;;;;;;;21.05;10.38;;;;;;;;;;5046616;28;20017;-84
2021/12/09 04:52:19;;;;;;;19.65;8.90;;;0.80;99.90;;;;;;5047668;28;20080;-83
2021/12/09 04:55:03;;;;;;;18.65;9.63;;;0.70;99.90;;;;;;5065632;28;20087;-85
2021/12/09 04:57:29;;;;;;;20.95;9.98;;;0.70;99.90;;;;;;5047733;28;20060;-84
2021/12/09 05:00:08;;;;;;;20.77;10.18;;;0.70;99.90;;;;;;5046336;28;20128;-83
2021/12/09 05:03:02;;;;;;;21.30;10.40;;;3.40;99.90;;;;;;5064236;28;20088;-83
2021/12/09 05:05:21;;;;;;;20.08;9.88;;;2.10;99.90;;;;;;5063076;28;20025;-84
2021/12/09 05:07:48;;;;;;;18.60;9.80;;;0.70;99.90;;;;;;5047419;28;20033;-84
2021/12/09 05:10:17;;;;;;;20.75;11.20;;;;;;;;;;5027673;28;20025;-83
2021/12/09 05:13:01;;;;;;;23.05;11.65;;;2.30;99.90;;;;;;5042301;28;20020;-84
2021/12/09 05:15:27;;;;;;;18.73;10.32;;;0.70;99.90;;;;;;5027756;28;20017;-84
2021/12/09 05:17:53;;;;;;;20.33;10.60;;;0.70;99.90;;;;;;5031030;28;20240;-83
2021/12/09 05:20:19;;;;;;;25.40;12.02;;;0.50;99.90;;;;;;5061668;28;20029;-82
2021/12/09 05:22:51;;;;;;;21.08;11.57;;;0.70;99.90;;;;;;5063490;28;20086;-83
2021/12/09 05:25:20;;;;;;;22.00;11.60;;;0.80;99.90;;;;;;5030605;28;20270;-84
2021/12/09 05:27:47;;;;;;;21.50;11.38;;;0.80;99.90;;;;;;5045383;28;20302;-83
2021/12/09 05:30:23;;;;;;;20.48;11.27;;;0.80;99.90;;;;;;5060014;28;20108;-84
2021/12/09 05:32:49;;;;;;;23.30;11.98;;;;;;;;;;5056604;28;20029;-84
2021/12/09 05:35:22;;;;;;;22.48;11.30;;;0.80;99.90;;;;;;5063849;28;20056;-83
2021/12/09 05:37:50;;;;;;;23.95;11.50;;;1.90;99.90;;;;;;5060791;28;20033;-83
2021/12/09 05:40:16;;;;;;;20.40;11.68;;;0.90;99.90;;;;;;5028141;28;20013;-82
2021/12/09 05:42:42;;;;;;;20.08;10.85;;;0.90;99.90;;;;;;5055416;28;20028;-83
2021/12/09 05:45:11;;;;;;;24.30;11.75;;;0.90;99.90;;;;;;5046538;28;20175;-83
2021/12/09 05:47:43;;;;;;;18.92;10.77;;;0.90;99.90;;;;;;5046238;28;20029;-83
2021/12/09 05:50:09;;;;;;;19.13;10.45;;;0.90;99.90;;;;;;5043114;28;20091;-84
2021/12/09 05:52:41;;;;;;;23.35;11.77;;;;;;;;;;5046862;28;20029;-84
2021/12/09 05:55:12;;;;;;;21.98;11.18;;;0.90;99.90;;;;;;5062698;28;20039;-82
2021/12/09 05:57:44;;;;;;;22.48;10.95;;;;;;;;;;5045125;28;20024;-83
2021/12/09 06:00:10;;;;;;;20.77;10.80;;;-0.70;99.90;;;;;;5040597;28;20105;-83
2021/12/09 06:02:36;;;;;;;21.45;11.00;;;0.90;99.90;;;;;;5041320;28;20260;-84
2021/12/09 06:05:11;;;;;;;22.05;11.55;;;1.60;99.90;;;;;;5055589;28;20056;-83
2021/12/09 06:07:40;;;;;;;22.02;11.35;;;0.70;99.90;;;;;;5042362;28;20047;-84
2021/12/09 06:10:07;;;;;;;22.95;12.05;;;1.80;99.90;;;;;;5042951;28;20052;-84
2021/12/09 06:12:36;;;;;;;24.45;11.05;;;0.80;99.90;;;;;;5054771;28;20063;-84
2021/12/09 06:15:03;;;;;;;25.52;11.60;;;0.70;99.90;;;;;;5043741;28;20029;-83
2021/12/09 06:17:32;;;;;;;18.27;10.68;;;0.70;99.90;;;;;;5044795;28;20179;-85
2021/12/09 06:20:05;;;;;;;22.98;11.20;;;0.70;99.90;;;;;;5030401;28;20101;-84
2021/12/09 06:25:22;;;;;;;20.75;10.70;;;0.70;99.90;;;;;;5058373;28;20035;-82
2021/12/09 06:27:50;;;;;;;26.10;11.13;;;1.20;99.90;;;;;;5061055;28;20090;-82
2021/12/09 06:30:25;;;;;;;19.40;12.05;;;;;;;;;;5043063;28;20172;-83
2021/12/09 06:33:02;;;;;;;28.63;11.65;;;0.60;99.90;;;;;;5067411;28;20016;-83
2021/12/09 06:35:28;;;;;;;24.25;11.70;;;2.20;99.90;;;;;;5040551;28;20115;-85
2021/12/09 06:37:56;;;;;;;23.25;10.85;;;0.60;99.90;;;;;;5044690;28;20021;-85
2021/12/09 06:40:44;;;;;;;19.85;11.18;;;0.60;99.90;;;;;;5060814;28;20056;-83
2021/12/09 06:43:22;;;;;;;20.92;11.23;;;0.60;99.90;;;;;;5054569;28;20037;-84
2021/12/09 06:45:56;;;;;;;23.27;11.93;;;0.60;99.90;;;;;;5045469;28;20025;-83
2021/12/09 06:48:28;;;;;;;20.38;11.57;;;;;;;;;;5060511;28;20027;-86
2021/12/09 06:50:56;;;;;;;23.10;10.83;;;0.60;99.90;;;;;;5049104;28;20369;-85
2021/12/09 06:53:22;;;;;;;26.10;11.02;;;1.10;99.90;;;;;;5044762;28;20052;-83
2021/12/09 06:55:48;;;;;;;24.02;12.13;;;0.60;99.90;;;;;;5037310;28;20035;-86
2021/12/09 06:58:14;;;;;;;22.35;11.63;;;0.60;99.90;;;;;;5056060;28;20159;-84
2021/12/09 07:00:46;;;;;;;24.50;11.77;;;0.60;99.90;;;;;;5045047;28;20255;-86
2021/12/09 07:03:22;;;;;;;27.25;11.98;;;0.60;99.90;;;;;;5012871;28;20172;-86
2021/12/09 07:06:11;;;;;;;23.05;11.68;;;-0.40;99.90;;;;;;5042140;28;20090;-84
2021/12/09 07:08:48;;;;;;;22.35;11.75;;;0.60;99.90;;;;;;5042106;28;20039;-82
2021/12/09 07:11:17;;;;;;;21.48;11.55;;;0.60;99.90;;;;;;5042652;28;20029;-83
2021/12/09 07:13:56;;;;;;;21.98;11.80;;;0.60;99.90;;;;;;5064189;28;20021;-86
2021/12/09 07:16:31;;;;;;;25.65;12.35;;;0.60;99.90;;;;;;5057626;28;20036;-85
2021/12/09 07:19:07;;;;;;;24.42;10.93;;;2.10;99.90;;;;;;5042634;28;20032;-83
2021/12/09 07:21:33;;;;;;;27.40;12.80;;;0.60;99.90;;;;;;5042848;28;20497;-84
2021/12/09 07:24:20;;;;;;;26.88;12.57;;;1.20;99.90;;;;;;5026653;28;20078;-85
2021/12/09 07:26:49;;;;;;;22.35;11.45;;;0.90;99.90;;;;;;5040880;28;20029;-84
2021/12/09 07:29:14;;;;;;;23.80;12.10;;;0.60;99.90;;;;;;5023133;28;20338;-84
2021/12/09 07:31:43;;;;;;;22.83;11.75;;;0.60;99.90;;;;;;5043174;28;20017;-84
2021/12/09 07:34:09;;;;;;;24.75;12.57;;;2.00;99.90;;;;;;5062287;28;20017;-83
2021/12/09 07:36:40;;;;;;;25.40;12.25;;;0.60;99.90;;;;;;5058544;28;20028;-85
2021/12/09 07:39:06;;;;;;;24.77;12.40;;;0.70;99.90;;;;;;5059672;28;20283;-84
2021/12/09 07:41:32;;;;;;;23.85;12.38;;;0.60;99.90;;;;;;5021253;28;20089;-84
2021/12/09 07:44:05;;;;;;;22.98;11.68;;;2.40;99.90;;;;;;5042235;28;20157;-85
2021/12/09 07:46:42;;;;;;;23.58;11.63;;;0.60;99.90;;;;;;5060514;28;20032;-85
2021/12/09 07:49:16;;;;;;;28.17;12.98;;;0.60;99.90;;;;;;5044078;28;20035;-85
2021/12/09 07:51:45;;;;;;;22.73;11.80;;;0.60;99.90;;;;;;5059803;28;20052;-84
2021/12/09 07:54:11;;;;;;;22.55;11.65;;;0.60;99.90;;;;;;5062099;28;20025;-83
2021/12/09 07:56:37;;;;;;;26.13;12.50;;;0.70;99.90;;;;;;5040290;28;20058;-84
2021/12/09 07:59:03;;;;;;;25.55;12.27;;;0.60;99.90;;;;;;5011081;28;20056;-84
2021/12/09 08:01:29;;;;;;;23.88;11.80;;;0.70;99.90;;;;;;5060326;28;20218;-82
2021/12/09 08:03:55;;;;;;;22.05;11.93;;;0.80;99.90;;;;;;5060751;28;20112;-84
2021/12/09 08:06:42;;;;;;;28.08;13.45;;;0.70;99.90;;;;;;5061073;28;20044;-84
2021/12/09 08:09:08;;;;;;;28.95;12.45;;;0.70;99.90;;;;;;5058733;28;20033;-83
2021/12/09 08:11:37;;;;;;;24.38;13.05;;;1.90;99.90;;;;;;5073485;28;20025;-83
2021/12/09 08:14:04;;;;;;;25.52;12.70;;;0.70;99.90;;;;;;5063406;28;20179;-84
2021/12/09 08:16:38;;;;;;;23.27;12.15;;;0.70;99.90;;;;;;5048352;28;20098;-85
2021/12/09 08:19:17;;;;;;;22.30;11.70;;;1.40;99.90;;;;;;5063946;28;20101;-84
2021/12/09 08:21:42;;;;;;;27.13;13.70;;;0.80;99.90;;;;;;5062244;28;20322;-83
2021/12/09 08:24:17;;;;;;;24.48;12.32;;;2.60;99.90;;;;;;5064405;28;20067;-84
2021/12/09 08:26:43;;;;;;;25.35;12.70;;;1.90;99.90;;;;;;5029223;28;20029;-84
2021/12/09 08:29:09;;;;;;;26.55;12.40;;;2.30;99.90;;;;;;5042470;28;20109;-85
2021/12/09 08:31:35;;;;;;;23.70;12.05;;;1.00;99.90;;;;;;5040490;28;20017;-83
2021/12/09 08:34:03;;;;;;;21.10;11.98;;;1.70;99.90;;;;;;5047076;28;20016;-84
2021/12/09 08:36:30;;;;;;;22.13;12.10;;;2.20;99.90;;;;;;5030860;28;20025;-84
2021/12/09 08:38:55;;;;;;;25.52;12.07;;;1.10;99.90;;;;;;5047377;28;20053;-84
2021/12/09 08:41:31;;;;;;;23.10;12.10;;;1.10;99.90;;;;;;5046514;28;20032;-85
2021/12/09 08:43:57;;;;;;;27.15;12.30;;;1.10;99.90;;;;;;5045541;28;20270;-84
2021/12/09 08:46:22;;;;;;;20.45;11.65;;;1.20;99.90;;;;;;5047571;28;20017;-84
2021/12/09 08:48:48;;;;;;;24.08;11.40;;;1.70;99.90;;;;;;5064339;28;20048;-83
2021/12/09 08:51:18;;;;;;;23.92;12.10;;;1.20;99.90;;;;;;5064005;28;20049;-85
2021/12/09 08:53:54;;;;;;;;;;;;;;;;;;;;;
2021/12/09 08:56:30;;;;;;;23.60;11.15;;;0.80;99.90;;;;;;5049574;28;20062;-86
2021/12/09 08:58:55;;;;;;;22.92;11.30;;;1.40;99.90;;;;;;5047169;28;20044;-84
2021/12/09 09:01:21;;;;;;;20.98;11.18;;;1.40;99.90;;;;;;5063893;28;20233;-84
2021/12/09 09:03:47;;;;;;;22.30;11.23;;;1.60;99.90;;;;;;5030506;28;20027;-82
2021/12/09 09:06:18;;;;;;;21.92;11.10;;;1.50;99.90;;;;;;5030386;28;20017;-85
2021/12/09 09:08:44;;;;;;;24.20;11.20;;;1.50;99.90;;;;;;5030950;28;20086;-83
2021/12/09 09:11:10;;;;;;;23.80;10.75;;;1.60;99.90;;;;;;5065059;28;20143;-84
2021/12/09 09:13:40;;;;;;;20.27;10.15;;;2.70;99.90;;;;;;5063872;28;20256;-85
2021/12/09 09:16:15;;;;;;;22.83;10.25;;;;;;;;;;5048456;28;20058;-85
2021/12/09 09:18:47;;;;;;;20.48;10.07;;;1.60;99.90;;;;;;5064079;28;20041;-84
2021/12/09 09:21:13;;;;;;;24.17;10.95;;;1.70;99.90;;;;;;5030929;28;20295;-84
2021/12/09 09:23:39;;;;;;;19.00;10.00;;;1.60;99.90;;;;;;5046765;28;20079;-84
2021/12/09 09:26:15;;;;;;;17.77;10.27;;;1.80;99.90;;;;;;5061499;28;20489;-83
2021/12/09 09:28:41;;;;;;;21.13;10.05;;;1.80;99.90;;;;;;5047191;28;20083;-84
2021/12/09 09:31:08;;;;;;;26.33;10.05;;;3.70;99.90;;;;;;5063325;28;20025;-82
2021/12/09 09:33:34;;;;;;;20.52;9.38;;;1.90;99.90;;;;;;5064960;28;20025;-82
2021/12/09 09:36:06;;;;;;;23.40;10.00;;;3.50;99.90;;;;;;5030383;28;20031;-83
2021/12/09 09:38:34;;;;;;;19.48;9.93;;;2.10;99.90;;;;;;5026890;28;20097;-83
2021/12/09 09:41:14;;;;;;;17.60;9.02;;;2.10;99.90;;;;;;5060177;28;20195;-84
2021/12/09 09:46:21;;;;;;;19.48;9.05;;;2.20;99.90;;;;;;5063076;28;20029;-85
2021/12/09 09:49:08;;;;;;;19.27;8.90;;;3.60;99.90;;;;;;5062390;28;20037;-83
2021/12/09 09:51:38;;;;;;;16.90;8.90;;;2.30;99.90;;;;;;5063008;28;20242;-82
2021/12/09 09:54:09;;;;;;;18.33;8.25;;;2.40;99.90;;;;;;5063341;28;20093;-84
2021/12/09 09:56:40;;;;;;;23.67;9.32;;;2.40;99.90;;;;;;5063443;28;20088;-83
2021/12/09 09:59:09;;;;;;;16.90;7.63;;;2.50;99.90;;;;;;5062909;28;20032;-83
2021/12/09 10:01:38;;;;;;;18.98;8.70;;;2.60;99.90;;;;;;5062476;28;20043;-83
2021/12/09 10:04:12;;;;;;;19.38;8.32;;;2.60;99.90;;;;;;5062361;28;20051;-84
2021/12/09 10:06:49;;;;;;;18.25;8.55;;;2.70;99.90;;;;;;5063012;28;20040;-82
2021/12/09 10:09:16;;;;;;;18.45;8.20;;;2.70;99.90;;;;;;5059806;28;20072;-83
2021/12/09 10:11:43;;;;;;;20.40;8.00;;;2.80;99.90;;;;;;5061220;28;20085;-83
2021/12/09 10:14:12;;;;;;;18.92;8.27;;;2.90;99.90;;;;;;5059379;28;20212;-82
2021/12/09 10:16:39;;;;;;;18.13;7.85;;;2.90;99.90;;;;;;5046274;28;20024;-83
2021/12/09 10:19:20;;;;;;;17.35;8.40;;;3.00;99.90;;;;;;5028551;28;20108;-83
2021/12/09 10:22:20;;;;;;;18.33;7.82;;;3.00;99.90;;;;;;5045873;28;20024;-83
2021/12/09 10:24:48;;;;;;;17.58;7.90;;;3.00;99.90;;;;;;5046276;28;20039;-82
2021/12/09 10:27:29;;;;;;;18.48;7.60;;;3.10;99.90;;;;;;5045934;28;20048;-83
2021/12/09 10:30:08;;;;;;;18.25;7.90;;;3.10;99.90;;;;;;5045964;28;20021;-82
2021/12/09 10:32:35;;;;;;;17.95;7.43;;;3.20;99.90;;;;;;5045362;28;20266;-82
2021/12/09 10:35:22;;;;;;;15.63;7.30;;;3.20;99.90;;;;;;5045673;28;20028;-83
2021/12/09 10:37:50;;;;;;;16.65;6.93;;;3.20;99.90;;;;;;5061619;28;20063;-81
2021/12/09 10:40:19;;;;;;;19.00;7.55;;;3.30;99.90;;;;;;5028229;28;20048;-83
2021/12/09 10:42:51;;;;;;;16.45;6.95;;;3.30;99.90;;;;;;5062182;28;20029;-83
2021/12/09 10:45:30;;;;;;;16.75;7.78;;;;;;;;;;5036265;28;20132;-83
2021/12/09 10:48:10;;;;;;;13.88;6.70;;;3.40;99.90;;;;;;5039781;28;20052;-82
2021/12/09 10:50:46;;;;;;;17.88;7.03;;;3.30;99.90;;;;;;5039263;28;20052;-83
2021/12/09 10:53:33;;;;;;;15.20;6.47;;;3.00;99.90;;;;;;5044671;28;20043;-79
2021/12/09 10:56:13;;;;;;;15.40;6.45;;;3.50;99.90;;;;;;5061468;28;20033;-79
2021/12/09 10:58:42;;;;;;;16.88;7.05;;;3.50;99.90;;;;;;5045148;28;20016;-80
2021/12/09 11:01:39;;;;;;;16.40;6.88;;;3.50;99.90;;;;;;5060556;28;20328;-80
2021/12/09 11:04:08;;;;;;;17.60;6.97;;;3.60;99.90;;;;;;5029789;28;20040;-81
2021/12/09 11:06:44;;;;;;;13.80;6.70;;;3.60;99.90;;;;;;5023582;28;20024;-80
2021/12/09 11:09:26;;;;;;;18.40;7.10;;;3.60;99.90;;;;;;5028120;28;20123;-81
2021/12/09 11:11:56;;;;;;;19.52;7.53;;;3.50;99.90;;;;;;5061726;28;20108;-81
2021/12/09 11:14:32;;;;;;;14.93;6.68;;;3.60;99.90;;;;;;5043167;28;20289;-80
2021/12/09 11:17:03;;;;;;;15.18;6.47;;;3.50;99.90;;;;;;5056930;28;21132;-81
2021/12/09 11:19:45;;;;;;;19.00;7.22;;;3.60;99.90;;;;;;5043820;28;20040;-80
2021/12/09 11:22:19;;;;;;;15.18;7.38;;;3.60;99.90;;;;;;5041990;28;20064;-82
2021/12/09 11:24:56;;;;;;;19.30;7.70;;;3.50;99.90;;;;;;5041806;28;20048;-80
2021/12/09 11:27:30;;;;;;;19.33;8.65;;;3.40;99.90;;;;;;5043730;28;20087;-80
2021/12/09 11:30:11;;;;;;;19.48;9.45;;;3.60;99.90;;;;;;5028043;23;20088;-81
2021/12/09 11:32:51;;;;;;;17.50;7.95;;;3.60;99.90;;;;;;5021743;28;20085;-80
2021/12/09 11:35:28;;;;;;;19.88;8.65;;;3.50;99.90;;;;;;5022854;28;20212;-80
2021/12/09 11:40:58;;;;;;;19.40;8.30;;;4.10;99.90;;;;;;5021983;28;20273;-81
2021/12/09 11:43:32;;;;;;;19.10;8.77;;;3.50;99.90;;;;;;5004414;28;20053;-81
2021/12/09 11:45:59;;;;;;;17.48;9.07;;;3.40;99.90;;;;;;5005052;28;20179;-80
2021/12/09 11:48:28;;;;;;;17.08;8.48;;;3.40;99.90;;;;;;5008544;28;20045;-81
2021/12/09 11:51:00;;;;;;;18.48;8.75;;;3.40;99.90;;;;;;5025349;28;20022;-80
2021/12/09 11:53:34;;;;;;;18.95;8.60;;;3.30;99.90;;;;;;5023377;28;20041;-79
2021/12/09 11:56:11;;;;;;;18.08;8.70;;;3.30;99.90;;;;;;5005974;28;20038;-80
2021/12/09 11:58:55;;;;;;;16.27;8.15;;;1.90;99.90;;;;;;5009558;28;20030;-81
2021/12/09 12:07:43;;;;;;;22.55;9.48;;;3.30;99.90;;;;;;5028013;28;20052;-79
2021/12/09 12:14:06;;;;;;;21.25;9.45;;;3.20;99.90;;;;;;5023032;28;20053;-80
2021/12/09 12:19:25;;;;;;;22.55;10.32;;;3.20;99.90;;;;;;5019373;28;20037;-80
2021/12/09 12:25:11;;;;;;;22.63;10.27;;;3.30;99.90;;;;;;5007282;28;20081;-81
2021/12/09 12:28:14;;;;;;;22.88;10.13;;;3.00;99.90;;;;;;5025331;28;20044;-81
2021/12/09 12:31:22;;;;;;;21.45;9.77;;;3.30;99.90;;;;;;5015479;28;20038;-81
2021/12/09 12:39:31;;;;;;;25.38;12.02;;;3.40;99.90;;;;;;5023055;28;20037;-81
2021/12/09 12:42:00;;;;;;;25.35;11.13;;;3.40;99.90;;;;;;5011337;28;20036;-81
2021/12/09 12:44:32;;;;;;;25.30;11.60;;;3.40;99.90;;;;;;5007113;28;20025;-83
2021/12/09 12:47:10;;;;;;;25.90;10.65;;;3.40;99.90;;;;;;5006759;28;20041;-82
2021/12/09 12:49:37;;;;;;;21.35;10.82;;;3.40;99.90;;;;;;5020880;28;20160;-82
2021/12/09 12:52:21;;;;;;;23.13;11.05;;;4.30;99.90;;;;;;5021635;28;20411;-83
2021/12/09 12:54:55;;;;;;;25.02;11.15;;;3.40;99.90;;;;;;5008256;28;20052;-82
2021/12/09 12:57:40;;;;;;;26.58;10.90;;;5.00;99.90;;;;;;5007325;28;20082;-80
2021/12/09 13:00:41;;;;;;;;;;;;;;;;;;;;;
2021/12/09 13:03:21;;;;;;;19.70;10.45;;;3.40;99.90;;;;;;5040168;28;20041;-80
2021/12/09 13:06:13;;;;;;;19.40;10.00;;;3.40;99.90;;;;;;5004325;28;20034;-80
2021/12/09 13:09:13;;;;;;;22.17;9.85;;;3.40;99.90;;;;;;5022305;28;20303;-79
2021/12/09 13:11:52;;;;;;;24.15;9.77;;;3.40;99.90;;;;;;5004992;28;20079;-79
2021/12/09 13:14:25;;;;;;;21.35;10.43;;;3.50;99.90;;;;;;5017896;28;20056;-80
2021/12/09 13:17:12;;;;;;;18.05;9.70;;;3.50;99.90;;;;;;5014811;28;20026;-80
2021/12/09 13:19:56;;;;;;;24.83;10.50;;;3.50;99.90;;;;;;5022013;28;20268;-79
2021/12/09 13:22:29;;;;;;;;;;;3.50;99.90;;;;;;5016933;28;20100;-80
2021/12/09 13:25:24;;;;;;;24.00;10.60;;;3.50;99.90;;;;;;5022649;28;19921;-79
2021/12/09 13:28:00;;;;;;;21.20;10.50;;;3.50;99.90;;;;;;5037564;28;20176;-79
2021/12/09 13:33:37;;;;;;;25.92;10.20;;;3.50;99.90;;;;;;5020060;28;20050;-80
2021/12/09 13:55:30;;;;;;;22.00;10.65;;;2.50;99.90;;;;;;5024376;28;20129;-84
2021/12/09 13:57:59;;;;;;;18.60;10.27;;;3.50;99.90;;;;;;5021194;28;20092;-82
2021/12/09 14:00:25;;;;;;;20.73;10.88;;;3.50;99.90;;;;;;5005374;28;20105;-82
2021/12/09 14:03:10;;;;;;;20.00;10.88;;;3.50;99.90;;;;;;5022218;28;20044;-82
2021/12/09 14:05:37;;;;;;;21.98;10.70;;;3.50;99.90;;;;;;5021800;28;20071;-82
2021/12/09 14:08:06;;;;;;;19.77;11.00;;;3.50;99.90;;;;;;5019942;28;20037;-83